Latest Weather Observations for Geelong Racecourse

IDV60801

Issued at 12:05 pm EST Monday 22 September 2014 (issued every 30 minutes, with the page automatically refreshed every 10 minutes)

About weather observations | Map of weather stations | Latest weather observations for VIC | Other Formats
Station Details ID: 087184 Name: GEELONG RACECOURSE Lat: -38.17 Lon: 144.38 Height: 12.9 m
Data from the previous 72 hours. | See also: Recent months at Geelong Racecourse
Date/Time
EST
Temp
°C
App
Temp
°C
Dew
Point
Rel
Hum
%
Delta-T
°C
Wind Press
QNH
hPa
Press
MSL
hPa
Rain
since 9 am
mm
Dir
 
Spd
km/h
Gust
km/h
Spd
kts
Gust
kts
22/12:00pm 18.1 16.6 10.5 61 4.0 NE 9 13 5 7 1028.0 1028.0 0.0
22/11:30am 17.3 15.6 10.0 62 3.8 NE 9 13 5 7 1028.4 1028.4 0.0
22/11:00am 15.6 13.8 9.3 66 3.2 NE 9 13 5 7 1028.7 1028.7 0.0
22/10:30am 14.9 12.7 9.5 70 2.8 NNE 11 15 6 8 1029.0 1029.0 0.0
22/10:00am 14.1 12.1 8.7 70 2.7 NNE 9 13 5 7 1029.3 1029.3 0.0
22/09:30am 13.3 11.3 8.6 73 2.4 NNE 9 15 5 8 1029.6 1029.6 0.0
22/09:00am 12.4 10.4 8.7 78 1.8 NNE 9 13 5 7 1029.6 1029.6 0.0
22/08:30am 11.3 10.0 9.9 91 0.7 NNE 7 13 4 7 1029.9 1029.9 0.0
22/08:00am 9.4 8.3 8.5 94 0.4 N 4 6 2 3 1029.7 1029.7 0.0
22/07:30am 6.3 4.9 5.4 94 0.4 W 2 2 1 1 1029.4 1029.4 0.0
22/07:00am 3.8 1.5 2.9 94 0.4 W 4 4 2 2 1029.4 1029.4 0.0
22/06:30am 2.9 0.5 2.0 94 0.4 W 4 6 2 3 1029.2 1029.2 0.0
22/06:00am 2.9 0.5 2.0 94 0.3 W 4 4 2 2 1029.1 1029.1 0.0
22/05:30am 3.1 0.7 2.2 94 0.4 W 4 6 2 3 1028.9 1028.9 0.0
22/05:00am 3.4 1.1 2.5 94 0.4 W 4 4 2 2 1028.6 1028.6 0.0
22/04:30am 2.8 0.7 1.9 94 0.4 W 2 4 1 2 1028.5 1028.5 0.0
22/04:00am 3.6 2.0 2.7 94 0.4 CALM 0 0 0 0 1028.5 1028.5 0.0
22/03:30am 3.8 2.3 2.9 94 0.4 CALM 0 0 0 0 1028.8 1028.8 0.0
22/03:00am 3.7 2.1 2.7 93 0.4 W 0 0 0 0 1028.8 1028.8 0.0
22/02:30am 4.3 2.9 3.3 93 0.4 CALM 0 0 0 0 1029.1 1029.1 0.0
22/02:00am 4.6 3.2 3.6 93 0.4 CALM 0 0 0 0 1029.4 1029.4 0.0
22/01:30am 5.2 3.5 4.2 93 0.4 W 2 2 1 1 1029.6 1029.6 0.0
22/01:00am 5.1 3.4 4.1 93 0.4 W 2 2 1 1 1029.8 1029.8 0.0
22/12:30am 5.6 4.0 4.6 93 0.4 W 2 4 1 2 1029.8 1029.8 0.0
22/12:00am 6.1 4.2 5.1 93 0.4 W 4 4 2 2 1029.8 1029.8 0.0
 
Date/Time
EST
Temp
°C
App
Temp
°C
Dew
Point
Rel
Hum
%
Delta-T
°C
Wind Press
QNH
hPa
Press
MSL
hPa
Rain
since 9 am
mm
Dir
 
Spd
km/h
Gust
km/h
Spd
kts
Gust
kts
21/11:30pm 6.0 4.5 5.0 93 0.4 W 2 4 1 2 1029.8 1029.8 0.0
21/11:00pm 6.5 5.4 5.3 92 0.5 CALM 0 0 0 0 1030.2 1030.2 0.0
21/10:30pm 7.0 6.0 5.8 92 0.5 CALM 0 0 0 0 1030.2 1030.2 0.0
21/10:00pm 7.5 6.7 6.3 92 0.5 CALM 0 0 0 0 1030.5 1030.5 0.0
21/09:30pm 7.9 7.1 6.7 92 0.6 CALM 0 0 0 0 1030.6 1030.6 0.0
21/09:00pm 8.2 7.5 6.8 91 0.6 CALM 0 2 0 1 1030.7 1030.7 0.0
21/08:30pm 7.6 5.9 5.7 88 0.8 S 4 4 2 2 1030.9 1030.9 0.0
21/08:00pm 8.4 6.3 5.7 83 1.2 S 6 7 3 4 1030.9 1030.9 0.0
21/07:30pm 9.9 7.9 6.3 78 1.7 S 6 7 3 4 1030.7 1030.7 0.0
21/07:00pm 10.4 8.1 5.6 72 2.2 S 7 9 4 5 1030.6 1030.6 0.0
21/06:30pm 11.3 8.6 5.6 68 2.6 S 9 13 5 7 1030.3 1030.3 0.0
21/06:00pm 12.2 9.1 5.6 64 3.0 SSE 11 15 6 8 1030.2 1030.2 0.0
21/05:30pm 12.9 9.1 5.8 62 3.3 SSE 15 19 8 10 1030.0 1030.0 0.0
21/05:00pm 13.7 10.3 6.1 60 3.6 S 13 19 7 10 1029.9 1029.9 0.0
21/04:30pm 14.4 11.2 6.7 60 3.7 SSE 13 19 7 10 1029.8 1029.8 0.0
21/04:00pm 14.9 12.0 6.7 58 4.0 S 11 15 6 8 1029.9 1029.9 0.0
21/03:30pm 15.3 12.5 7.1 58 4.0 SSE 11 17 6 9 1029.9 1029.9 0.0
21/03:00pm 15.8 13.0 7.1 56 4.3 SE 11 17 6 9 1030.0 1030.0 0.0
21/02:30pm 16.0 13.8 6.4 53 4.7 SSE 7 15 4 8 1030.1 1030.1 0.0
21/02:00pm 16.2 13.9 7.4 56 4.3 ESE 9 15 5 8 1030.5 1030.5 0.0
21/01:30pm 15.8 13.2 6.0 52 4.7 ESE 9 19 5 10 1030.7 1030.7 0.0
21/01:00pm 15.6 13.1 6.6 55 4.4 S 9 17 5 9 1031.1 1031.1 0.0
21/12:30pm 15.6 13.0 6.3 54 4.5 SSE 9 22 5 12 1031.7 1031.7 0.0
21/12:00pm 14.9 11.9 6.0 55 4.2 SSW 11 17 6 9 1031.8 1031.8 0.0
21/11:30am 14.6 11.6 6.2 57 4.0 S 11 20 6 11 1032.1 1032.2 0.0
21/11:00am 15.1 12.5 5.9 54 4.4 SSE 9 24 5 13 1032.4 1032.5 0.0
21/10:30am 14.0 10.9 5.4 56 4.0 SSE 11 17 6 9 1032.5 1032.6 0.0
21/10:00am 13.8 9.9 5.4 57 3.9 S 15 19 8 10 1032.4 1032.5 0.0
21/09:30am 14.9 11.9 6.0 55 4.3 ESE 11 19 6 10 1032.2 1032.3 0.0
21/09:00am 14.4 12.5 6.7 60 3.7 SE 6 9 3 5 1031.9 1032.0 0.0
21/08:30am 13.0 11.0 6.4 64 3.1 SE 6 9 3 5 1031.7 1031.7 0.0
21/08:00am 12.2 11.2 7.3 72 2.3 SW 2 6 1 3 1031.5 1031.5 0.0
21/07:30am 10.5 10.1 8.4 87 1.0 CALM 0 2 0 1 1031.3 1031.3 0.0
21/07:00am 9.3 8.6 7.1 86 1.0 CALM 0 4 0 2 1031.2 1031.2 0.0
21/06:30am 8.3 6.9 5.6 83 1.2 S 2 6 1 3 1031.0 1031.0 0.0
21/06:00am 9.2 7.8 5.6 78 1.6 S 2 4 1 2 1030.5 1030.5 0.0
21/05:30am 9.9 8.6 6.1 77 1.8 WSW 2 4 1 2 1030.2 1030.2 0.0
21/05:00am 9.8 8.2 6.5 80 1.5 S 4 6 2 3 1030.2 1030.2 0.0
21/04:30am 9.2 8.4 8.1 93 0.5 SSW 2 7 1 4 1030.2 1030.2 0.0
21/04:00am 9.2 8.8 8.1 93 0.5 CALM 0 0 0 0 1030.0 1030.0 0.0
21/03:30am 8.7 7.4 7.8 94 0.4 W 4 6 2 3 1029.9 1029.9 0.0
21/03:00am 8.5 7.9 7.6 94 0.4 CALM 0 0 0 0 1029.8 1029.8 0.0
21/02:30am 8.2 6.8 7.3 94 0.4 W 4 6 2 3 1030.1 1030.1 0.0
21/02:00am 7.6 6.1 6.7 94 0.4 W 4 4 2 2 1030.5 1030.5 0.0
21/01:30am 7.0 5.3 6.1 94 0.4 W 4 4 2 2 1030.4 1030.4 0.0
21/01:00am 7.0 5.3 6.1 94 0.4 NW 4 6 2 3 1030.5 1030.5 0.0
21/12:30am 7.0 5.7 6.1 94 0.4 WSW 2 4 1 2 1030.5 1030.5 0.0
21/12:00am 7.1 6.2 6.0 93 0.5 CALM 0 0 0 0 1030.6 1030.6 0.0
 
Date/Time
EST
Temp
°C
App
Temp
°C
Dew
Point
Rel
Hum
%
Delta-T
°C
Wind Press
QNH
hPa
Press
MSL
hPa
Rain
since 9 am
mm
Dir
 
Spd
km/h
Gust
km/h
Spd
kts
Gust
kts
20/11:30pm 7.7 6.9 6.6 93 0.5 CALM 0 0 0 0 1030.5 1030.5 0.0
20/11:00pm 7.8 7.0 6.7 93 0.5 CALM 0 0 0 0 1030.5 1030.5 0.0
20/10:30pm 8.6 8.0 7.5 93 0.5 CALM 0 0 0 0 1030.3 1030.3 0.0
20/10:00pm 9.6 9.2 8.4 92 0.6 CALM 0 2 0 1 1030.5 1030.5 0.0
20/09:30pm 10.1 9.0 8.4 89 0.8 SSW 4 6 2 3 1030.4 1030.4 0.0
20/09:00pm 11.2 10.2 8.9 86 1.1 SSE 4 7 2 4 1030.5 1030.5 0.0
20/08:30pm 11.6 9.8 9.5 87 1.1 SE 9 13 5 7 1030.4 1030.4 0.0
20/08:00pm 11.7 10.5 10.3 91 0.7 SSE 7 9 4 5 1030.6 1030.6 0.0
20/07:30pm 11.6 10.3 10.0 90 0.8 ESE 7 15 4 8 1030.3 1030.3 0.0
20/07:00pm 11.6 10.1 9.0 84 1.3 SSE 7 9 4 5 1029.9 1029.9 0.0
20/06:30pm 11.5 9.4 8.4 81 1.5 S 9 13 5 7 1029.6 1029.6 0.0
20/06:00pm 11.9 8.7 7.0 72 2.3 S 13 19 7 10 1029.4 1029.4 0.0
20/05:30pm 12.9 9.0 7.1 68 2.8 S 17 22 9 12 1029.2 1029.2 0.0
20/05:00pm 13.1 9.5 8.2 72 2.4 S 17 22 9 12 1028.8 1028.8 0.0
20/04:30pm 13.5 9.5 8.1 70 2.7 S 19 24 10 13 1028.5 1028.5 0.0
20/04:00pm 14.3 10.1 7.4 63 3.4 S 19 26 10 14 1028.3 1028.3 0.0
20/03:30pm 14.6 10.3 6.9 60 3.8 S 19 24 10 13 1028.0 1028.0 0.0
20/03:00pm 14.9 10.1 7.2 60 3.8 S 22 32 12 17 1027.8 1027.8 0.0
20/02:30pm 14.4 9.7 7.9 65 3.2 S 22 32 12 17 1027.8 1027.8 0.0
20/02:00pm 14.8 10.4 7.6 62 3.5 S 20 26 11 14 1027.7 1027.7 0.0
20/01:30pm 14.5 10.3 8.2 66 3.2 SSE 20 28 11 15 1027.7 1027.7 0.0
20/01:00pm 14.6 10.4 7.6 63 3.4 S 19 28 10 15 1027.8 1027.8 0.0
20/12:30pm 14.3 10.4 7.1 62 3.5 S 17 24 9 13 1027.9 1027.9 0.0
20/12:00pm 14.3 10.0 8.0 66 3.1 S 20 30 11 16 1028.0 1028.0 0.0
20/11:30am 14.4 10.5 7.0 61 3.6 S 17 26 9 14 1028.2 1028.2 0.0
20/11:00am 13.9 9.5 6.5 61 3.5 S 19 24 10 13 1028.3 1028.3 0.0
20/10:30am 13.5 10.1 6.1 61 3.5 SSW 13 20 7 11 1028.5 1028.5 0.0
20/10:00am 13.5 10.7 7.1 65 3.1 SSW 11 19 6 10 1028.6 1028.6 0.0
20/09:30am 13.6 11.0 7.6 67 2.9 SW 11 20 6 11 1028.5 1028.5 0.0
20/09:00am 12.6 10.0 7.9 73 2.3 SW 11 15 6 8 1028.4 1028.4 0.0
20/08:30am 12.4 10.5 7.5 72 2.4 SSW 7 11 4 6 1028.2 1028.2 0.0
20/08:00am 11.6 10.1 8.6 82 1.5 SW 6 11 3 6 1027.9 1027.9 0.0
20/07:30am 10.1 8.7 8.9 92 0.6 W 6 9 3 5 1027.6 1027.6 0.0
20/07:00am 9.4 8.2 8.2 92 0.6 W 4 9 2 5 1027.4 1027.4 0.0
20/06:30am 9.5 7.9 7.8 89 0.8 S 6 9 3 5 1027.2 1027.2 0.0
20/06:00am 9.4 8.7 7.0 85 1.1 CALM 0 2 0 1 1026.5 1026.5 0.0
20/05:30am 9.6 7.8 7.2 85 1.1 W 6 7 3 4 1026.0 1026.0 0.0
20/05:00am 9.6 7.9 7.5 87 1.0 W 6 7 3 4 1025.7 1025.7 0.0
20/04:30am 9.3 7.4 7.6 89 0.8 W 7 11 4 6 1025.4 1025.4 0.0
20/04:00am 9.1 6.8 7.4 89 0.8 W 9 11 5 6 1025.3 1025.3 0.0
20/03:30am 9.3 7.3 6.9 85 1.1 W 7 11 4 6 1025.4 1025.4 0.0
20/03:00am 9.7 7.8 7.6 87 1.0 W 7 9 4 5 1025.3 1025.3 0.0
20/02:30am 9.4 7.6 7.0 85 1.1 W 6 11 3 6 1025.4 1025.4 0.0
20/02:00am 9.9 7.7 6.4 79 1.6 W 7 11 4 6 1025.6 1025.6 0.0
20/01:30am 10.5 8.1 6.8 78 1.7 WSW 9 15 5 8 1025.8 1025.8 0.0
20/01:00am 10.2 8.7 6.9 80 1.5 WSW 4 7 2 4 1025.9 1025.9 0.0
20/12:30am 10.5 8.6 6.8 78 1.7 SW 6 7 3 4 1025.6 1025.6 0.0
20/12:00am 10.6 8.6 7.1 79 1.7 W 7 13 4 7 1025.6 1025.6 0.0
 
Date/Time
EST
Temp
°C
App
Temp
°C
Dew
Point
Rel
Hum
%
Delta-T
°C
Wind Press
QNH
hPa
Press
MSL
hPa
Rain
since 9 am
mm
Dir
 
Spd
km/h
Gust
km/h
Spd
kts
Gust
kts
19/11:30pm 10.5 8.1 7.0 79 1.7 W 9 13 5 7 1025.7 1025.7 0.0
19/11:00pm 10.5 8.4 6.5 76 1.9 W 7 9 4 5 1025.9 1025.9 0.0
19/10:30pm 10.7 5.7 6.5 75 2.0 SSW 22 30 12 16 1026.1 1026.1 0.0
19/10:00pm 10.4 8.5 6.5 77 1.8 WSW 6 7 3 4 1025.9 1025.9 0.0
19/09:30pm 10.8 8.3 6.7 76 1.9 WSW 9 13 5 7 1026.2 1026.2 0.0
19/09:00pm 11.1 8.2 6.5 73 2.2 WSW 11 15 6 8 1026.0 1026.0 0.0
19/08:30pm 10.9 8.0 6.6 75 2.0 SW 11 15 6 8 1025.8 1025.8 0.0
19/08:00pm 11.2 8.8 6.9 75 2.0 SW 9 13 5 7 1025.6 1025.6 0.0
19/07:30pm 10.9 9.0 6.6 75 2.0 WSW 6 9 3 5 1025.4 1025.4 0.0
19/07:00pm 11.0 8.5 6.6 74 2.1 SW 9 11 5 6 1025.2 1025.2 0.0
19/06:30pm 11.7 8.5 6.8 72 2.3 SSW 13 19 7 10 1024.8 1024.8 0.0
19/06:00pm 12.1 8.6 7.2 72 2.3 SSW 15 20 8 11 1024.7 1024.7 0.0
19/05:30pm 12.4 8.5 7.3 71 2.5 SSW 17 22 9 12 1024.5 1024.5 0.0
19/05:00pm 13.0 8.8 7.5 69 2.7 SSW 19 26 10 14 1024.3 1024.3 0.0
19/04:30pm 13.6 9.8 7.4 66 3.0 S 17 24 9 13 1024.1 1024.1 0.0
19/04:00pm 13.2 9.0 7.6 69 2.7 SSW 19 28 10 15 1024.1 1024.1 0.0
19/03:30pm 13.6 9.3 7.8 68 2.9 S 20 30 11 16 1023.9 1023.9 0.0
19/03:00pm 14.7 12.2 8.4 66 3.2 S 11 20 6 11 1023.8 1023.8 0.0
19/02:30pm 12.9 9.5 9.2 78 1.9 S 17 20 9 11 1024.1 1024.1 0.0
19/02:00pm 13.4 10.6 8.5 72 2.4 S 13 19 7 10 1024.1 1024.1 0.0
19/01:30pm 13.7 11.3 6.8 63 3.3 SW 9 17 5 9 1024.2 1024.2 0.0
19/01:00pm 13.9 11.2 7.4 65 3.2 W 11 17 6 9 1024.4 1024.4 0.0
19/12:30pm 13.0 9.9 7.2 68 2.8 W 13 20 7 11 1024.7 1024.7 0.0

Other Formats:

Comma delimited format used in spreadsheet applications
http://www.bom.gov.au/fwo/IDV60801/IDV60801.94857.axf

JavaScript Object Notation format (JSON) in row-major order
http://www.bom.gov.au/fwo/IDV60801/IDV60801.94857.json